Time,TemperatureF,DewpointF,PressureIn,WindDirection,WindDirectionDegrees,WindSpeedMPH,WindSpeedGustMPH,Humidity,HourlyPrecipIn,Conditions,Clouds,dailyrainin,SoftwareType,DateUTC
2013-08-06 00:01:00,57.6,54.4,30.01,East,82,0.0,0.0,89,0.00,,CLR,0.00,VWS V14.01,2013-08-06 04:01:00,
2013-08-06 00:06:00,57.6,54.7,30.02,East,82,0.0,0.0,90,0.00,,CLR,0.00,VWS V14.01,2013-08-06 04:06:00,
2013-08-06 00:11:00,57.4,54.5,30.02,East,82,0.0,0.0,90,0.00,,CLR,0.00,VWS V14.01,2013-08-06 04:11:00,
2013-08-06 00:16:00,57.6,55.0,30.02,East,80,0.0,0.0,91,0.00,,CLR,0.00,VWS V14.01,2013-08-06 04:16:00,
2013-08-06 00:21:00,57.4,54.8,30.02,East,80,0.0,0.0,91,0.00,,CLR,0.00,VWS V14.01,2013-08-06 04:21:00,
2013-08-06 00:26:00,57.1,54.5,30.02,East,80,0.0,0.0,91,0.00,,CLR,0.00,VWS V14.01,2013-08-06 04:26:00,
2013-08-06 00:31:00,57.6,54.7,30.02,East,82,0.0,0.0,90,0.00,,CLR,0.00,VWS V14.01,2013-08-06 04:31:00,
2013-08-06 00:36:00,58.4,54.5,30.03,East,82,0.0,0.0,87,0.00,,CLR,0.00,VWS V14.01,2013-08-06 04:36:00,
2013-08-06 00:41:00,59.1,54.9,30.03,East,82,0.0,0.0,86,0.00,,CLR,0.00,VWS V14.01,2013-08-06 04:41:00,
2013-08-06 00:47:00,59.4,54.6,30.03,East,82,0.0,0.0,84,0.00,,CLR,0.00,VWS V14.01,2013-08-06 04:47:00,
2013-08-06 00:52:00,59.8,55.0,30.02,East,98,0.0,1.0,84,0.00,,CLR,0.00,VWS V14.01,2013-08-06 04:52:00,
2013-08-06 00:57:00,60.5,55.3,30.03,East,97,0.0,0.0,83,0.00,,CLR,0.00,VWS V14.01,2013-08-06 04:57:00,
2013-08-06 01:02:00,61.1,55.6,30.03,East,98,0.0,0.0,82,0.00,,CLR,0.00,VWS V14.01,2013-08-06 05:02:00,
2013-08-06 01:07:00,61.1,55.6,30.03,East,98,0.0,0.0,82,0.00,,FEW065,0.00,VWS V14.01,2013-08-06 05:07:00,
2013-08-06 01:12:00,61.0,55.5,30.03,East,97,0.0,0.0,82,0.00,,FEW065,0.00,VWS V14.01,2013-08-06 05:12:00,
2013-08-06 01:17:00,61.4,55.5,30.03,ESE,105,0.0,1.0,81,0.00,,FEW065,0.00,VWS V14.01,2013-08-06 05:17:00,
2013-08-06 01:22:00,61.8,55.9,30.03,ESE,120,0.0,1.0,81,0.00,,FEW065,0.00,VWS V14.01,2013-08-06 05:22:00,
2013-08-06 01:27:00,62.2,56.0,30.03,ESE,120,0.0,0.0,80,0.00,,FEW065,0.00,VWS V14.01,2013-08-06 05:27:00,
2013-08-06 01:32:00,62.4,55.8,30.03,SE,125,0.0,0.0,79,0.00,,FEW065,0.00,VWS V14.01,2013-08-06 05:32:00,
2013-08-06 01:37:00,62.3,56.1,30.03,SE,125,0.0,0.0,80,0.00,,FEW065,0.00,VWS V14.01,2013-08-06 05:37:00,
2013-08-06 01:42:00,62.0,55.8,30.03,SE,125,0.0,0.0,80,0.00,,FEW065,0.00,VWS V14.01,2013-08-06 05:42:00,
2013-08-06 01:47:00,62.4,56.2,30.03,East,95,1.0,1.0,80,0.00,,FEW065,0.00,VWS V14.01,2013-08-06 05:47:00,
2013-08-06 01:52:00,63.0,56.0,30.03,East,92,0.0,1.0,78,0.00,,FEW065,0.00,VWS V14.01,2013-08-06 05:52:00,
2013-08-06 01:57:00,63.3,56.3,30.03,East,92,0.0,1.0,78,0.00,,FEW065,0.00,VWS V14.01,2013-08-06 05:57:00,
2013-08-06 02:02:00,63.3,56.3,30.02,East,98,0.0,0.0,78,0.00,,FEW065,0.00,VWS V14.01,2013-08-06 06:02:00,
2013-08-06 02:07:00,62.7,56.5,30.02,East,98,0.0,0.0,80,0.00,,FEW080,0.00,VWS V14.01,2013-08-06 06:07:00,
2013-08-06 02:12:00,61.3,56.1,30.02,East,97,0.0,0.0,83,0.00,,FEW080,0.00,VWS V14.01,2013-08-06 06:12:00,
2013-08-06 02:17:00,60.9,56.0,30.03,East,98,0.0,0.0,84,0.00,,FEW080,0.00,VWS V14.01,2013-08-06 06:17:00,
2013-08-06 02:22:00,60.7,56.2,30.03,East,98,0.0,0.0,85,0.00,,FEW080,0.00,VWS V14.01,2013-08-06 06:22:00,
2013-08-06 02:27:00,60.1,55.9,30.02,East,97,0.0,0.0,86,0.00,,FEW080,0.00,VWS V14.01,2013-08-06 06:27:00,
2013-08-06 02:32:00,59.5,55.6,30.03,East,98,0.0,0.0,87,0.00,,FEW080,0.00,VWS V14.01,2013-08-06 06:32:00,
2013-08-06 02:37:00,59.1,55.5,30.03,NW,312,0.0,1.0,88,0.00,,FEW080,0.00,VWS V14.01,2013-08-06 06:37:00,
2013-08-06 02:42:00,58.7,55.5,30.02,NW,319,0.0,0.0,89,0.00,,FEW080,0.00,VWS V14.01,2013-08-06 06:42:00,
2013-08-06 02:47:00,58.4,55.5,30.02,NW,319,0.0,0.0,90,0.00,,FEW080,0.00,VWS V14.01,2013-08-06 06:47:00,
2013-08-06 02:52:00,58.1,55.5,30.03,NW,319,0.0,0.0,91,0.00,,FEW080,0.00,VWS V14.01,2013-08-06 06:52:00,
2013-08-06 02:57:00,57.9,55.3,30.02,NW,319,0.0,0.0,91,0.00,,FEW080,0.00,VWS V14.01,2013-08-06 06:57:00,
2013-08-06 03:02:00,57.8,55.5,30.02,NE,51,0.0,0.0,92,0.00,,FEW080,0.00,VWS V14.01,2013-08-06 07:02:00,
2013-08-06 03:07:00,57.8,55.5,30.02,ENE,63,0.0,0.0,92,0.00,,CLR,0.00,VWS V14.01,2013-08-06 07:07:00,
2013-08-06 03:12:00,57.9,55.6,30.02,East,79,0.0,1.0,92,0.00,,CLR,0.00,VWS V14.01,2013-08-06 07:12:00,
2013-08-06 03:17:00,58.0,55.7,30.02,East,80,0.0,0.0,92,0.00,,CLR,0.00,VWS V14.01,2013-08-06 07:17:00,
2013-08-06 03:22:00,57.7,55.4,30.02,East,87,0.0,0.0,92,0.00,,CLR,0.00,VWS V14.01,2013-08-06 07:22:00,
2013-08-06 03:27:00,57.3,55.3,30.02,East,87,0.0,0.0,93,0.00,,CLR,0.00,VWS V14.01,2013-08-06 07:27:00,
2013-08-06 03:32:00,57.1,55.4,30.02,East,90,0.0,1.0,94,0.00,,CLR,0.00,VWS V14.01,2013-08-06 07:32:00,
2013-08-06 03:37:00,57.0,55.3,30.02,East,89,0.0,0.0,94,0.00,,CLR,0.00,VWS V14.01,2013-08-06 07:37:00,
2013-08-06 03:42:00,56.8,55.1,30.02,East,89,0.0,0.0,94,0.00,,CLR,0.00,VWS V14.01,2013-08-06 07:42:00,
2013-08-06 03:47:00,56.7,55.0,30.03,East,89,0.0,0.0,94,0.00,,CLR,0.00,VWS V14.01,2013-08-06 07:47:00,
2013-08-06 03:52:00,56.6,55.2,30.02,East,89,0.0,0.0,95,0.00,,CLR,0.00,VWS V14.01,2013-08-06 07:52:00,
2013-08-06 03:57:00,56.5,55.1,30.03,East,91,0.0,0.0,95,0.00,,CLR,0.00,VWS V14.01,2013-08-06 07:57:00,
2013-08-06 04:02:00,56.3,54.9,30.03,East,90,0.0,0.0,95,0.00,,CLR,0.00,VWS V14.01,2013-08-06 08:02:00,
2013-08-06 04:07:00,56.4,55.3,30.02,East,91,0.0,0.0,96,0.00,,BKN095,0.00,VWS V14.01,2013-08-06 08:07:00,
2013-08-06 04:12:00,56.6,55.5,30.02,East,91,0.0,0.0,96,0.00,,BKN095,0.00,VWS V14.01,2013-08-06 08:12:00,
2013-08-06 04:17:00,56.6,55.5,30.02,East,89,0.0,0.0,96,0.00,,BKN095,0.00,VWS V14.01,2013-08-06 08:17:00,
2013-08-06 04:22:00,56.6,55.5,30.02,East,89,0.0,0.0,96,0.00,,BKN095,0.00,VWS V14.01,2013-08-06 08:22:00,
2013-08-06 04:27:00,56.6,55.5,30.02,East,91,0.0,0.0,96,0.00,,BKN095,0.00,VWS V14.01,2013-08-06 08:27:00,
2013-08-06 04:32:00,56.7,55.6,30.02,East,89,0.0,0.0,96,0.00,,BKN095,0.00,VWS V14.01,2013-08-06 08:32:00,
2013-08-06 04:37:00,56.9,56.1,30.02,East,89,0.0,0.0,97,0.00,,BKN095,0.00,VWS V14.01,2013-08-06 08:37:00,
2013-08-06 04:42:00,57.0,56.2,30.02,East,89,0.0,0.0,97,0.00,,BKN095,0.00,VWS V14.01,2013-08-06 08:42:00,
2013-08-06 04:47:00,57.0,55.9,30.02,East,89,0.0,0.0,96,0.00,,BKN095,0.00,VWS V14.01,2013-08-06 08:47:00,
2013-08-06 04:52:00,57.0,55.9,30.02,East,89,0.0,0.0,96,0.00,,BKN095,0.00,VWS V14.01,2013-08-06 08:52:00,
2013-08-06 04:57:00,57.1,56.3,30.02,East,93,0.0,0.0,97,0.00,,BKN095,0.00,VWS V14.01,2013-08-06 08:57:00,
2013-08-06 05:02:00,57.1,56.0,30.02,East,93,0.0,0.0,96,0.00,,BKN095,0.00,VWS V14.01,2013-08-06 09:02:00,
2013-08-06 05:03:00,57.1,56.0,30.02,East,93,0.0,0.0,96,0.00,,OVC095,0.00,VWS V14.01,2013-08-06 09:03:00,
2013-08-06 05:08:00,57.0,55.9,30.02,East,93,0.0,0.0,96,0.00,,OVC095,0.00,VWS V14.01,2013-08-06 09:08:00,
2013-08-06 05:13:00,56.8,56.0,30.02,East,93,0.0,0.0,97,0.00,,OVC095,0.00,VWS V14.01,2013-08-06 09:13:00,
2013-08-06 05:18:00,56.7,55.9,30.02,East,93,0.0,0.0,97,0.00,,OVC095,0.00,VWS V14.01,2013-08-06 09:18:00,
2013-08-06 05:23:00,56.7,55.9,30.02,East,93,0.0,0.0,97,0.00,,OVC095,0.00,VWS V14.01,2013-08-06 09:23:00,
2013-08-06 05:28:00,56.7,55.9,30.02,East,93,0.0,0.0,97,0.00,,OVC095,0.00,VWS V14.01,2013-08-06 09:28:00,
2013-08-06 05:33:00,56.7,55.9,30.02,East,93,0.0,0.0,97,0.00,,OVC095,0.00,VWS V14.01,2013-08-06 09:33:00,
2013-08-06 05:38:00,56.8,56.0,30.02,East,93,0.0,0.0,97,0.00,,OVC095,0.00,VWS V14.01,2013-08-06 09:38:00,
2013-08-06 05:43:00,57.0,56.2,30.02,East,94,0.0,0.0,97,0.00,,OVC095,0.00,VWS V14.01,2013-08-06 09:43:00,
2013-08-06 05:48:00,57.1,56.0,30.02,East,93,0.0,0.0,96,0.00,,OVC095,0.00,VWS V14.01,2013-08-06 09:48:00,
2013-08-06 05:53:00,57.1,56.0,30.02,East,93,0.0,0.0,96,0.00,,OVC095,0.00,VWS V14.01,2013-08-06 09:53:00,
2013-08-06 05:58:00,57.0,55.6,30.02,East,93,0.0,0.0,95,0.00,,OVC095,0.00,VWS V14.01,2013-08-06 09:58:00,
2013-08-06 06:03:00,56.8,55.4,30.02,East,93,0.0,0.0,95,0.00,,CLR,0.00,VWS V14.01,2013-08-06 10:03:00,
2013-08-06 06:08:00,56.7,55.6,30.02,East,93,0.0,0.0,96,0.00,,CLR,0.00,VWS V14.01,2013-08-06 10:08:00,
2013-08-06 06:13:00,56.6,55.5,30.03,East,93,0.0,0.0,96,0.00,,CLR,0.00,VWS V14.01,2013-08-06 10:13:00,
2013-08-06 06:18:00,56.5,55.4,30.02,East,92,0.0,0.0,96,0.00,,CLR,0.00,VWS V14.01,2013-08-06 10:18:00,
2013-08-06 06:23:00,56.6,55.5,30.03,East,93,0.0,0.0,96,0.00,,CLR,0.00,VWS V14.01,2013-08-06 10:23:00,
2013-08-06 06:28:00,56.7,55.6,30.03,East,93,0.0,0.0,96,0.00,,CLR,0.00,VWS V14.01,2013-08-06 10:28:00,
2013-08-06 06:33:00,56.9,55.8,30.03,East,93,0.0,0.0,96,0.00,,CLR,0.00,VWS V14.01,2013-08-06 10:33:00,
2013-08-06 06:38:00,57.3,56.5,30.03,East,94,0.0,0.0,97,0.00,,CLR,0.00,VWS V14.01,2013-08-06 10:38:00,
2013-08-06 06:43:00,57.6,56.5,30.03,East,93,0.0,0.0,96,0.00,,CLR,0.00,VWS V14.01,2013-08-06 10:43:00,
2013-08-06 06:48:00,57.9,56.8,30.03,East,94,0.0,0.0,96,0.00,,CLR,0.00,VWS V14.01,2013-08-06 10:48:00,
2013-08-06 06:53:00,58.4,57.0,30.03,East,93,0.0,0.0,95,0.00,,CLR,0.00,VWS V14.01,2013-08-06 10:53:00,
2013-08-06 06:58:00,58.9,57.2,30.03,East,93,0.0,0.0,94,0.00,,CLR,0.00,VWS V14.01,2013-08-06 10:58:00,
2013-08-06 07:03:00,59.1,57.1,30.03,East,93,0.0,0.0,93,0.00,,SCT090,0.00,VWS V14.01,2013-08-06 11:03:00,
2013-08-06 07:08:00,59.5,57.8,30.03,East,93,0.0,0.0,94,0.00,,SCT090,0.00,VWS V14.01,2013-08-06 11:08:00,
2013-08-06 07:13:00,60.6,58.9,30.03,East,93,0.0,0.0,94,0.00,,SCT090,0.00,VWS V14.01,2013-08-06 11:13:00,
2013-08-06 07:18:00,61.8,59.8,30.03,East,93,0.0,0.0,93,0.00,,SCT090,0.00,VWS V14.01,2013-08-06 11:18:00,
2013-08-06 07:23:00,62.5,59.8,30.03,East,93,0.0,0.0,91,0.00,,SCT090,0.00,VWS V14.01,2013-08-06 11:23:00,
2013-08-06 07:28:00,62.8,59.2,30.03,SSE,165,0.0,0.0,88,0.00,,SCT090,0.00,VWS V14.01,2013-08-06 11:28:00,
2013-08-06 07:33:00,62.7,59.4,30.03,SSE,165,0.0,0.0,89,0.00,,SCT090,0.00,VWS V14.01,2013-08-06 11:33:00,
2013-08-06 07:38:00,63.0,59.7,30.03,SSE,165,0.0,0.0,89,0.00,,SCT090,0.00,VWS V14.01,2013-08-06 11:38:00,
2013-08-06 07:43:00,62.7,59.4,30.03,ESE,103,1.0,1.0,89,0.00,,SCT090,0.00,VWS V14.01,2013-08-06 11:43:00,
2013-08-06 07:48:00,62.1,58.5,30.03,ENE,75,0.0,1.0,88,0.00,,SCT090,0.00,VWS V14.01,2013-08-06 11:48:00,
2013-08-06 07:53:00,62.0,58.4,30.03,ENE,76,0.0,0.0,88,0.00,,SCT090,0.00,VWS V14.01,2013-08-06 11:53:00,
2013-08-06 07:58:00,62.4,59.1,30.03,ENE,77,0.0,0.0,89,0.00,,SCT090,0.00,VWS V14.01,2013-08-06 11:58:00,
2013-08-06 08:03:00,63.1,59.5,30.03,ENE,78,0.0,0.0,88,0.00,,BKN090,0.00,VWS V14.01,2013-08-06 12:03:00,
2013-08-06 08:08:00,63.8,59.9,30.03,ENE,76,0.0,0.0,87,0.00,,BKN090,0.00,VWS V14.01,2013-08-06 12:08:00,
2013-08-06 08:13:00,64.3,60.0,30.03,ENE,78,0.0,0.0,86,0.00,,BKN090,0.00,VWS V14.01,2013-08-06 12:13:00,
2013-08-06 08:18:00,65.1,60.5,30.03,ENE,78,0.0,0.0,85,0.00,,BKN090,0.00,VWS V14.01,2013-08-06 12:18:00,
2013-08-06 08:23:00,65.5,59.5,30.03,ENE,78,0.0,0.0,81,0.00,,BKN090,0.00,VWS V14.01,2013-08-06 12:23:00,
2013-08-06 08:28:00,65.6,59.6,30.03,ENE,77,0.0,0.0,81,0.00,,BKN090,0.00,VWS V14.01,2013-08-06 12:28:00,
2013-08-06 08:33:00,66.3,60.3,30.04,ENE,76,0.0,0.0,81,0.00,,BKN090,0.00,VWS V14.01,2013-08-06 12:33:00,
2013-08-06 08:38:00,66.9,60.2,30.04,ENE,78,0.0,0.0,79,0.00,,BKN090,0.00,VWS V14.01,2013-08-06 12:38:00,
2013-08-06 08:43:00,67.3,60.6,30.04,ESE,122,0.0,0.0,79,0.00,,BKN090,0.00,VWS V14.01,2013-08-06 12:43:00,
2013-08-06 08:48:00,67.4,60.3,30.04,ESE,122,0.0,0.0,78,0.00,,BKN090,0.00,VWS V14.01,2013-08-06 12:48:00,
2013-08-06 08:53:00,67.3,60.2,30.04,ESE,105,0.0,0.0,78,0.00,,BKN090,0.00,VWS V14.01,2013-08-06 12:53:00,
2013-08-06 08:58:00,67.3,60.2,30.04,ESE,107,0.0,0.0,78,0.00,,BKN090,0.00,VWS V14.01,2013-08-06 12:58:00,
2013-08-06 09:03:00,67.3,60.6,30.04,SE,124,0.0,1.0,79,0.00,,SCT095,0.00,VWS V14.01,2013-08-06 13:03:00,
2013-08-06 09:08:00,67.4,60.0,30.04,East,87,0.0,1.0,77,0.00,,SCT095,0.00,VWS V14.01,2013-08-06 13:08:00,
2013-08-06 09:13:00,67.8,60.7,30.04,ESE,116,0.0,1.0,78,0.00,,SCT095,0.00,VWS V14.01,2013-08-06 13:13:00,
2013-08-06 09:18:00,68.5,61.0,30.04,ESE,113,1.0,1.0,77,0.00,,SCT095,0.00,VWS V14.01,2013-08-06 13:18:00,
2013-08-06 09:23:00,69.6,61.3,30.04,ESE,120,0.0,1.0,75,0.00,,SCT095,0.00,VWS V14.01,2013-08-06 13:23:00,
2013-08-06 09:28:00,70.3,61.6,30.04,SSE,162,0.0,1.0,74,0.00,,SCT095,0.00,VWS V14.01,2013-08-06 13:28:00,
2013-08-06 09:33:00,70.8,62.1,30.04,East,96,0.0,3.0,74,0.00,,SCT095,0.00,VWS V14.01,2013-08-06 13:33:00,
2013-08-06 09:38:00,71.5,62.8,30.03,SE,134,4.0,4.0,74,0.00,,SCT095,0.00,VWS V14.01,2013-08-06 13:38:00,
2013-08-06 09:43:00,71.6,62.1,30.04,SE,145,5.0,6.0,72,0.00,,SCT095,0.00,VWS V14.01,2013-08-06 13:43:00,
2013-08-06 09:49:00,71.8,61.9,30.04,SE,131,0.0,6.0,71,0.00,,SCT095,0.00,VWS V14.01,2013-08-06 13:49:00,
2013-08-06 09:54:00,72.1,61.8,30.04,SE,129,3.0,7.0,70,0.00,,SCT095,0.00,VWS V14.01,2013-08-06 13:54:00,
2013-08-06 09:59:00,72.4,62.9,30.04,ESE,107,3.0,6.0,72,0.00,,SCT095,0.00,VWS V14.01,2013-08-06 13:59:00,
2013-08-06 10:04:00,72.9,62.5,30.05,ESE,108,3.0,6.0,70,0.00,,SCT095,0.00,VWS V14.01,2013-08-06 14:04:00,
2013-08-06 10:09:00,72.6,62.3,30.05,ESE,113,7.0,9.0,70,0.00,,SCT095,0.00,VWS V14.01,2013-08-06 14:09:00,
2013-08-06 10:14:00,72.6,62.3,30.04,SE,139,2.0,8.0,70,0.00,,SCT095,0.00,VWS V14.01,2013-08-06 14:14:00,
2013-08-06 10:19:00,72.5,62.2,30.04,East,98,4.0,10.0,70,0.00,,SCT095,0.00,VWS V14.01,2013-08-06 14:19:00,
2013-08-06 10:24:00,72.2,61.9,30.04,SSE,156,2.0,10.0,70,0.00,,SCT095,0.00,VWS V14.01,2013-08-06 14:24:00,
2013-08-06 10:29:00,72.8,62.9,30.04,ESE,110,5.0,7.0,71,0.00,,SCT095,0.00,VWS V14.01,2013-08-06 14:29:00,
2013-08-06 10:34:00,72.2,62.3,30.04,ESE,119,5.0,10.0,71,0.00,,BKN036,0.00,VWS V14.01,2013-08-06 14:34:00,
2013-08-06 10:39:00,71.9,62.8,30.04,South,191,4.0,6.0,73,0.00,,BKN036,0.00,VWS V14.01,2013-08-06 14:39:00,
2013-08-06 10:44:00,71.6,62.1,30.04,SE,138,3.0,8.0,72,0.00,,BKN036,0.00,VWS V14.01,2013-08-06 14:44:00,
2013-08-06 10:49:00,71.3,62.6,30.04,SE,128,5.0,5.0,74,0.00,,BKN036,0.00,VWS V14.01,2013-08-06 14:49:00,
2013-08-06 10:54:00,71.1,62.4,30.05,South,169,3.0,4.0,74,0.00,,BKN036,0.00,VWS V14.01,2013-08-06 14:54:00,
2013-08-06 10:59:00,71.1,62.8,30.05,South,183,0.0,3.0,75,0.00,,BKN036,0.00,VWS V14.01,2013-08-06 14:59:00,
2013-08-06 11:04:00,71.1,63.2,30.05,SE,134,0.0,2.0,76,0.00,,OVC080,0.00,VWS V14.01,2013-08-06 15:04:00,
2013-08-06 11:09:00,71.2,63.6,30.05,SE,124,3.0,4.0,77,0.00,,OVC080,0.00,VWS V14.01,2013-08-06 15:09:00,
2013-08-06 11:14:00,71.1,63.5,30.06,ESE,110,5.0,6.0,77,0.00,,OVC080,0.00,VWS V14.01,2013-08-06 15:14:00,
2013-08-06 11:19:00,71.0,63.4,30.06,SE,139,4.0,7.0,77,0.00,,OVC080,0.00,VWS V14.01,2013-08-06 15:19:00,
2013-08-06 11:24:00,70.9,62.6,30.06,South,174,5.0,7.0,75,0.00,,OVC080,0.00,VWS V14.01,2013-08-06 15:24:00,
2013-08-06 11:29:00,71.0,62.7,30.06,SE,125,3.0,6.0,75,0.00,,OVC080,0.00,VWS V14.01,2013-08-06 15:29:00,
2013-08-06 11:34:00,71.1,63.2,30.06,SSW,194,2.0,5.0,76,0.00,,OVC080,0.00,VWS V14.01,2013-08-06 15:34:00,
2013-08-06 11:39:00,71.2,62.9,30.07,South,169,3.0,8.0,75,0.00,,OVC080,0.00,VWS V14.01,2013-08-06 15:39:00,
2013-08-06 11:44:00,71.4,63.1,30.07,SSE,165,2.0,5.0,75,0.00,,OVC080,0.00,VWS V14.01,2013-08-06 15:44:00,
2013-08-06 11:49:00,71.3,62.6,30.07,SSE,160,1.0,8.0,74,0.00,,OVC080,0.00,VWS V14.01,2013-08-06 15:49:00,
2013-08-06 11:54:00,71.6,63.6,30.06,SSE,164,6.0,10.0,76,0.00,,OVC080,0.00,VWS V14.01,2013-08-06 15:54:00,
2013-08-06 11:59:00,72.4,64.0,30.06,SSE,165,2.0,9.0,75,0.00,,OVC080,0.00,VWS V14.01,2013-08-06 15:59:00,
2013-08-06 12:04:00,72.8,63.7,30.06,SSE,148,4.0,9.0,73,0.00,,OVC070,0.00,VWS V14.01,2013-08-06 16:04:00,
2013-08-06 12:09:00,72.9,63.8,30.06,SE,139,7.0,10.0,73,0.00,,OVC070,0.00,VWS V14.01,2013-08-06 16:09:00,
2013-08-06 12:14:00,72.8,63.7,30.06,SE,131,7.0,14.0,73,0.00,,OVC070,0.00,VWS V14.01,2013-08-06 16:14:00,
2013-08-06 12:19:00,72.5,63.4,30.06,SE,139,5.0,9.0,73,0.00,,OVC070,0.00,VWS V14.01,2013-08-06 16:19:00,
2013-08-06 12:24:00,72.5,63.8,30.06,ESE,110,11.0,13.0,74,0.00,,OVC070,0.00,VWS V14.01,2013-08-06 16:24:00,
2013-08-06 12:29:00,72.8,63.7,30.06,SE,128,6.0,14.0,73,0.00,,OVC070,0.00,VWS V14.01,2013-08-06 16:29:00,
2013-08-06 12:34:00,72.6,63.5,30.06,South,174,2.0,12.0,73,0.00,,OVC070,0.00,VWS V14.01,2013-08-06 16:34:00,
2013-08-06 12:39:00,72.3,64.7,30.06,SE,129,5.0,9.0,77,0.00,,OVC070,0.00,VWS V14.01,2013-08-06 16:39:00,
2013-08-06 12:44:00,72.1,64.5,30.06,SSE,163,4.0,8.0,77,0.00,,OVC070,0.00,VWS V14.01,2013-08-06 16:44:00,
2013-08-06 12:49:00,71.9,63.9,30.06,SE,146,7.0,8.0,76,0.00,,OVC070,0.00,VWS V14.01,2013-08-06 16:49:00,
2013-08-06 12:54:00,71.2,64.0,30.06,ESE,104,7.0,11.0,78,0.00,,OVC070,0.00,VWS V14.01,2013-08-06 16:54:00,
2013-08-06 12:59:00,71.0,64.2,30.06,SSE,148,2.0,9.0,79,0.00,,OVC070,0.00,VWS V14.01,2013-08-06 16:59:00,
2013-08-06 13:04:00,70.8,63.2,30.06,SE,139,3.0,8.0,77,0.00,,-RA,0.00,VWS V14.01,2013-08-06 17:04:00,
2013-08-06 13:09:00,70.5,63.3,30.06,SSE,149,4.0,9.0,78,0.00,,-RA,0.00,VWS V14.01,2013-08-06 17:09:00,
2013-08-06 13:14:00,70.3,62.8,30.06,SE,136,4.0,9.0,77,0.00,,-RA,0.00,VWS V14.01,2013-08-06 17:14:00,
2013-08-06 13:19:00,70.2,63.4,30.06,SSE,162,3.0,7.0,79,0.00,,-RA,0.00,VWS V14.01,2013-08-06 17:19:00,
2013-08-06 13:24:00,70.1,62.6,30.06,SE,125,8.0,9.0,77,0.00,,-RA,0.00,VWS V14.01,2013-08-06 17:24:00,
2013-08-06 13:29:00,69.9,62.4,30.06,SE,139,6.0,8.0,77,0.00,,-RA,0.00,VWS V14.01,2013-08-06 17:29:00,
2013-08-06 13:34:00,69.7,62.5,30.06,SSE,167,3.0,8.0,78,0.00,,-RA,0.00,VWS V14.01,2013-08-06 17:34:00,
2013-08-06 13:39:00,69.8,63.0,30.06,SE,143,2.0,5.0,79,0.00,,-RA,0.00,VWS V14.01,2013-08-06 17:39:00,
2013-08-06 13:44:00,69.8,63.0,30.06,South,174,2.0,5.0,79,0.00,,-RA,0.00,VWS V14.01,2013-08-06 17:44:00,
2013-08-06 13:49:00,69.9,63.1,30.06,SE,136,4.0,5.0,79,0.00,,-RA,0.00,VWS V14.01,2013-08-06 17:49:00,
2013-08-06 13:54:00,69.9,63.5,30.06,SE,145,0.0,6.0,80,0.00,,-RA,0.00,VWS V14.01,2013-08-06 17:54:00,
2013-08-06 13:59:00,69.9,63.5,30.06,SE,129,6.0,6.0,80,0.00,,-RA,0.00,VWS V14.01,2013-08-06 17:59:00,
2013-08-06 14:04:00,69.9,63.5,30.06,South,186,2.0,5.0,80,0.00,,OVC060,0.00,VWS V14.01,2013-08-06 18:04:00,
2013-08-06 14:09:00,70.0,63.5,30.06,ESE,110,2.0,4.0,80,0.00,,OVC060,0.00,VWS V14.01,2013-08-06 18:09:00,
2013-08-06 14:14:00,69.9,63.5,30.06,SE,139,4.0,7.0,80,0.00,,OVC060,0.00,VWS V14.01,2013-08-06 18:14:00,
2013-08-06 14:19:00,69.7,63.3,30.06,SE,127,7.0,7.0,80,0.00,,OVC060,0.00,VWS V14.01,2013-08-06 18:19:00,
2013-08-06 14:24:00,69.6,63.2,30.06,SE,136,4.0,9.0,80,0.00,,OVC060,0.00,VWS V14.01,2013-08-06 18:24:00,
2013-08-06 14:29:00,69.5,63.4,30.05,SSE,160,6.0,10.0,81,0.00,,OVC060,0.00,VWS V14.01,2013-08-06 18:29:00,
2013-08-06 14:34:00,69.5,63.4,30.05,SE,145,2.0,8.0,81,0.00,,OVC060,0.00,VWS V14.01,2013-08-06 18:34:00,
2013-08-06 14:39:00,69.5,63.4,30.05,SE,136,6.0,8.0,81,0.00,,OVC060,0.00,VWS V14.01,2013-08-06 18:39:00,
2013-08-06 14:44:00,69.5,63.8,30.05,SE,127,3.0,8.0,82,0.00,,OVC060,0.00,VWS V14.01,2013-08-06 18:44:00,
2013-08-06 14:49:00,69.6,63.5,30.05,South,174,5.0,7.0,81,0.00,,OVC060,0.00,VWS V14.01,2013-08-06 18:49:00,
2013-08-06 14:54:00,69.7,63.6,30.05,SSE,165,3.0,7.0,81,0.00,,OVC060,0.00,VWS V14.01,2013-08-06 18:54:00,
2013-08-06 14:59:00,69.8,64.1,30.06,West,270,2.0,7.0,82,0.00,,OVC060,0.00,VWS V14.01,2013-08-06 18:59:00,
2013-08-06 15:04:00,69.8,63.7,30.06,South,176,2.0,5.0,81,0.00,,OVC055,0.00,VWS V14.01,2013-08-06 19:04:00,
2013-08-06 15:09:00,69.8,63.0,30.06,SE,125,3.0,7.0,79,0.00,,OVC055,0.00,VWS V14.01,2013-08-06 19:09:00,
2013-08-06 15:14:00,69.9,62.7,30.05,ESE,120,6.0,7.0,78,0.00,,OVC055,0.00,VWS V14.01,2013-08-06 19:14:00,
2013-08-06 15:19:00,70.2,63.4,30.05,East,88,6.0,10.0,79,0.00,,OVC055,0.00,VWS V14.01,2013-08-06 19:19:00,
2013-08-06 15:24:00,70.5,62.6,30.05,ESE,114,3.0,10.0,76,0.00,,OVC055,0.00,VWS V14.01,2013-08-06 19:24:00,
2013-08-06 15:29:00,70.5,62.2,30.05,SE,134,5.0,9.0,75,0.00,,OVC055,0.00,VWS V14.01,2013-08-06 19:29:00,
2013-08-06 15:35:00,70.4,62.1,30.05,South,184,6.0,11.0,75,0.00,,OVC055,0.00,VWS V14.01,2013-08-06 19:35:00,
2013-08-06 15:40:00,70.4,62.8,30.06,SSE,148,4.0,8.0,77,0.00,,OVC055,0.00,VWS V14.01,2013-08-06 19:40:00,
2013-08-06 15:45:00,70.5,62.6,30.06,SE,132,4.0,6.0,76,0.00,,OVC055,0.00,VWS V14.01,2013-08-06 19:45:00,
2013-08-06 15:50:00,70.4,62.8,30.06,SSW,193,4.0,7.0,77,0.00,,OVC055,0.00,VWS V14.01,2013-08-06 19:50:00,
2013-08-06 15:55:00,70.4,63.2,30.06,SE,134,1.0,8.0,78,0.00,,OVC055,0.00,VWS V14.01,2013-08-06 19:55:00,
2013-08-06 16:00:00,70.3,63.5,30.06,SSE,149,3.0,6.0,79,0.00,,OVC055,0.00,VWS V14.01,2013-08-06 20:00:00,
2013-08-06 16:05:00,70.3,63.8,30.06,SE,125,4.0,5.0,80,0.00,,OVC070,0.00,VWS V14.01,2013-08-06 20:05:00,
2013-08-06 16:10:00,70.2,63.8,30.06,SSE,162,4.0,8.0,80,0.00,,OVC070,0.00,VWS V14.01,2013-08-06 20:10:00,
2013-08-06 16:15:00,70.1,64.0,30.06,South,174,4.0,6.0,81,0.00,,OVC070,0.00,VWS V14.01,2013-08-06 20:15:00,
2013-08-06 16:20:00,69.9,64.2,30.06,SSW,200,0.0,5.0,82,0.00,,OVC070,0.00,VWS V14.01,2013-08-06 20:20:00,
2013-08-06 16:25:00,70.2,65.1,30.07,West,260,3.0,4.0,84,0.00,,OVC070,0.00,VWS V14.01,2013-08-06 20:25:00,
2013-08-06 16:30:00,70.1,65.1,30.06,SSW,193,4.0,7.0,84,0.01,,OVC070,0.01,VWS V14.01,2013-08-06 20:30:00,
2013-08-06 16:33:00,69.9,65.2,30.06,South,177,2.0,5.0,85,0.01,,OVC070,0.01,VWS V14.01,2013-08-06 20:33:00,
2013-08-06 16:38:00,69.8,65.4,30.06,SE,135,4.0,8.0,86,0.01,,OVC070,0.01,VWS V14.01,2013-08-06 20:38:00,
2013-08-06 16:43:00,69.9,65.9,30.06,SE,129,3.0,7.0,87,0.01,,OVC070,0.01,VWS V14.01,2013-08-06 20:43:00,
2013-08-06 16:48:00,70.0,65.6,30.06,SSE,149,7.0,7.0,86,0.01,,OVC070,0.01,VWS V14.01,2013-08-06 20:48:00,
2013-08-06 16:53:00,69.6,65.2,30.06,SE,130,7.0,7.0,86,0.01,,OVC070,0.01,VWS V14.01,2013-08-06 20:53:00,
2013-08-06 16:58:00,69.3,65.3,30.06,SE,134,3.0,7.0,87,0.01,,OVC070,0.01,VWS V14.01,2013-08-06 20:58:00,
2013-08-06 17:03:00,69.2,64.8,30.06,South,174,7.0,9.0,86,0.01,,OVC040,0.01,VWS V14.01,2013-08-06 21:03:00,
2013-08-06 17:08:00,69.2,65.2,30.06,SSE,154,4.0,8.0,87,0.01,,OVC040,0.01,VWS V14.01,2013-08-06 21:08:00,
2013-08-06 17:13:00,69.1,65.1,30.05,SE,127,5.0,7.0,87,0.02,,OVC040,0.02,VWS V14.01,2013-08-06 21:13:00,
2013-08-06 17:18:00,69.2,65.5,30.06,SSE,150,4.0,8.0,88,0.02,,OVC040,0.02,VWS V14.01,2013-08-06 21:18:00,
2013-08-06 17:23:00,69.0,65.3,30.06,ESE,120,2.0,9.0,88,0.02,,OVC040,0.02,VWS V14.01,2013-08-06 21:23:00,
2013-08-06 17:28:00,68.9,65.2,30.06,SSE,152,4.0,7.0,88,0.02,,OVC040,0.02,VWS V14.01,2013-08-06 21:28:00,
2013-08-06 17:33:00,69.1,65.4,30.06,SE,145,3.0,8.0,88,0.01,,OVC040,0.02,VWS V14.01,2013-08-06 21:33:00,
2013-08-06 17:38:00,69.2,65.5,30.06,SE,128,11.0,11.0,88,0.01,,OVC040,0.02,VWS V14.01,2013-08-06 21:38:00,
2013-08-06 17:43:00,69.0,64.3,30.06,SE,139,5.0,10.0,85,0.01,,OVC040,0.02,VWS V14.01,2013-08-06 21:43:00,
2013-08-06 17:48:00,68.8,63.8,30.06,SSE,161,2.0,8.0,84,0.01,,OVC040,0.02,VWS V14.01,2013-08-06 21:48:00,
2013-08-06 17:53:00,68.5,63.8,30.06,SSE,156,2.0,7.0,85,0.01,,OVC040,0.02,VWS V14.01,2013-08-06 21:53:00,
2013-08-06 17:58:00,68.2,63.5,30.06,SSE,149,3.0,9.0,85,0.01,,OVC040,0.02,VWS V14.01,2013-08-06 21:58:00,
2013-08-06 18:03:00,68.0,63.7,30.06,SSE,158,1.0,6.0,86,0.01,,OVC034,0.02,VWS V14.01,2013-08-06 22:03:00,
2013-08-06 18:08:00,67.9,63.2,30.06,SSE,165,7.0,7.0,85,0.01,,OVC034,0.02,VWS V14.01,2013-08-06 22:08:00,
2013-08-06 18:13:00,67.8,63.5,30.06,SE,142,4.0,6.0,86,0.01,,OVC034,0.02,VWS V14.01,2013-08-06 22:13:00,
2013-08-06 18:18:00,67.8,63.5,30.06,ESE,118,6.0,10.0,86,0.00,,OVC034,0.02,VWS V14.01,2013-08-06 22:18:00,
2013-08-06 18:23:00,67.6,62.9,30.06,SE,142,5.0,10.0,85,0.00,,OVC034,0.02,VWS V14.01,2013-08-06 22:23:00,
2013-08-06 18:28:00,67.5,62.8,30.06,SSE,166,9.0,10.0,85,0.00,,OVC034,0.02,VWS V14.01,2013-08-06 22:28:00,
2013-08-06 18:33:00,67.3,63.0,30.06,SE,143,6.0,10.0,86,0.00,,OVC035,0.02,VWS V14.01,2013-08-06 22:33:00,
2013-08-06 18:38:00,67.1,62.8,30.06,SSE,156,3.0,11.0,86,0.00,,OVC035,0.02,VWS V14.01,2013-08-06 22:38:00,
2013-08-06 18:43:00,67.1,63.1,30.06,SSE,149,7.0,10.0,87,0.00,,OVC035,0.02,VWS V14.01,2013-08-06 22:43:00,
2013-08-06 18:48:00,66.9,62.6,30.06,SE,142,7.0,12.0,86,0.00,,OVC035,0.02,VWS V14.01,2013-08-06 22:48:00,
2013-08-06 18:53:00,66.9,62.6,30.05,ESE,115,12.0,12.0,86,0.00,,OVC035,0.02,VWS V14.01,2013-08-06 22:53:00,
2013-08-06 18:58:00,66.8,62.8,30.05,ESE,103,3.0,11.0,87,0.00,,OVC035,0.02,VWS V14.01,2013-08-06 22:58:00,
2013-08-06 19:03:00,66.7,62.7,30.05,South,187,4.0,10.0,87,0.00,,OVC039,0.02,VWS V14.01,2013-08-06 23:03:00,
2013-08-06 19:08:00,66.7,62.4,30.05,SSE,149,2.0,9.0,86,0.00,,OVC039,0.02,VWS V14.01,2013-08-06 23:08:00,
2013-08-06 19:14:00,66.6,62.3,30.05,SE,124,3.0,9.0,86,0.00,,OVC039,0.02,VWS V14.01,2013-08-06 23:14:00,
2013-08-06 19:19:00,66.6,62.3,30.06,SE,129,7.0,10.0,86,0.00,,OVC039,0.02,VWS V14.01,2013-08-06 23:19:00,
2013-08-06 19:24:00,66.5,62.2,30.06,SSE,162,4.0,10.0,86,0.00,,OVC039,0.02,VWS V14.01,2013-08-06 23:24:00,
2013-08-06 19:29:00,66.5,62.2,30.06,SSE,167,3.0,4.0,86,0.00,,OVC039,0.02,VWS V14.01,2013-08-06 23:29:00,
2013-08-06 19:34:00,66.4,62.1,30.06,East,98,4.0,6.0,86,0.00,,OVC039,0.02,VWS V14.01,2013-08-06 23:34:00,
2013-08-06 19:39:00,66.3,62.3,30.06,SE,138,2.0,6.0,87,0.00,,OVC039,0.02,VWS V14.01,2013-08-06 23:39:00,
2013-08-06 19:44:00,66.1,62.1,30.06,ESE,115,2.0,6.0,87,0.00,,OVC039,0.02,VWS V14.01,2013-08-06 23:44:00,
2013-08-06 19:49:00,66.0,62.0,30.06,ESE,115,3.0,4.0,87,0.00,,OVC039,0.02,VWS V14.01,2013-08-06 23:49:00,
2013-08-06 19:54:00,65.8,62.2,30.06,ESE,108,2.0,5.0,88,0.00,,OVC039,0.02,VWS V14.01,2013-08-06 23:54:00,
2013-08-06 19:59:00,65.7,62.0,30.06,SE,145,1.0,3.0,88,0.00,,OVC039,0.02,VWS V14.01,2013-08-06 23:59:00,
2013-08-06 20:04:00,65.6,62.0,30.06,SSE,148,2.0,3.0,88,0.00,,OVC028,0.02,VWS V14.01,2013-08-07 00:04:00,
2013-08-06 20:09:00,65.5,62.2,30.06,SE,131,2.0,5.0,89,0.00,,OVC028,0.02,VWS V14.01,2013-08-07 00:09:00,
2013-08-06 20:14:00,65.5,62.2,30.06,ESE,122,2.0,4.0,89,0.00,,OVC028,0.02,VWS V14.01,2013-08-07 00:14:00,
2013-08-06 20:19:00,65.4,62.1,30.06,SSE,161,4.0,6.0,89,0.00,,OVC028,0.02,VWS V14.01,2013-08-07 00:19:00,
2013-08-06 20:24:00,65.4,62.4,30.06,SE,126,4.0,6.0,90,0.00,,OVC028,0.02,VWS V14.01,2013-08-07 00:24:00,
2013-08-06 20:29:00,65.2,62.5,30.06,SE,142,4.0,5.0,91,0.00,,OVC028,0.02,VWS V14.01,2013-08-07 00:29:00,
2013-08-06 20:34:00,65.0,62.3,30.06,SSE,156,2.0,6.0,91,0.00,,OVC028,0.02,VWS V14.01,2013-08-07 00:34:00,
2013-08-06 20:39:00,65.0,62.6,30.06,SE,131,4.0,7.0,92,0.00,,OVC028,0.02,VWS V14.01,2013-08-07 00:39:00,
2013-08-06 20:44:00,64.9,62.8,30.06,SE,126,4.0,7.0,93,0.00,,OVC028,0.02,VWS V14.01,2013-08-07 00:44:00,
2013-08-06 20:49:00,64.8,62.7,30.06,SSE,150,2.0,9.0,93,0.00,,OVC028,0.02,VWS V14.01,2013-08-07 00:49:00,
2013-08-06 20:54:00,64.7,62.6,30.07,ESE,120,3.0,4.0,93,0.00,,OVC028,0.02,VWS V14.01,2013-08-07 00:54:00,
2013-08-06 20:59:00,64.7,62.9,30.07,SE,126,2.0,6.0,94,0.00,,OVC028,0.02,VWS V14.01,2013-08-07 00:59:00,
2013-08-06 21:04:00,64.7,62.9,30.07,SE,134,4.0,6.0,94,0.00,,OVC018,0.02,VWS V14.01,2013-08-07 01:04:00,
2013-08-06 21:09:00,64.7,62.9,30.07,SE,143,2.0,5.0,94,0.00,,OVC018,0.02,VWS V14.01,2013-08-07 01:09:00,
2013-08-06 21:14:00,64.8,63.0,30.07,SE,135,2.0,6.0,94,0.00,,OVC018,0.02,VWS V14.01,2013-08-07 01:14:00,
2013-08-06 21:19:00,64.9,63.1,30.07,SE,131,3.0,5.0,94,0.00,,OVC018,0.02,VWS V14.01,2013-08-07 01:19:00,
2013-08-06 21:24:00,64.9,63.1,30.07,South,170,5.0,5.0,94,0.00,,OVC018,0.02,VWS V14.01,2013-08-07 01:24:00,
2013-08-06 21:29:00,65.0,63.2,30.07,SSE,166,2.0,6.0,94,0.00,,OVC018,0.02,VWS V14.01,2013-08-07 01:29:00,
2013-08-06 21:34:00,65.0,63.2,30.07,SSE,149,2.0,4.0,94,0.00,,OVC070,0.02,VWS V14.01,2013-08-07 01:34:00,
2013-08-06 21:39:00,64.9,63.1,30.07,SE,129,2.0,6.0,94,0.00,,OVC070,0.02,VWS V14.01,2013-08-07 01:39:00,
2013-08-06 21:44:00,65.0,63.2,30.07,ESE,117,4.0,6.0,94,0.00,,OVC070,0.02,VWS V14.01,2013-08-07 01:44:00,
2013-08-06 21:49:00,64.9,63.1,30.07,ESE,110,3.0,6.0,94,0.00,,OVC070,0.02,VWS V14.01,2013-08-07 01:49:00,
2013-08-06 21:54:00,64.9,63.4,30.07,ESE,113,5.0,7.0,95,0.00,,OVC070,0.02,VWS V14.01,2013-08-07 01:54:00,
2013-08-06 21:59:00,64.9,63.4,30.07,ESE,106,2.0,7.0,95,0.00,,OVC070,0.02,VWS V14.01,2013-08-07 01:59:00,
2013-08-06 22:04:00,65.0,63.2,30.07,ESE,113,4.0,8.0,94,0.00,,OVC011,0.02,VWS V14.01,2013-08-07 02:04:00,
2013-08-06 22:09:00,65.0,63.2,30.07,SSE,148,3.0,8.0,94,0.00,,OVC011,0.02,VWS V14.01,2013-08-07 02:09:00,
2013-08-06 22:14:00,65.0,63.2,30.07,ESE,110,6.0,6.0,94,0.00,,OVC011,0.02,VWS V14.01,2013-08-07 02:14:00,
2013-08-06 22:19:00,65.0,63.5,30.06,SE,134,3.0,4.0,95,0.00,,OVC011,0.02,VWS V14.01,2013-08-07 02:19:00,
2013-08-06 22:24:00,65.1,63.6,30.07,ESE,108,2.0,6.0,95,0.00,,OVC011,0.02,VWS V14.01,2013-08-07 02:24:00,
2013-08-06 22:29:00,65.1,63.6,30.07,ESE,115,3.0,4.0,95,0.00,,OVC011,0.02,VWS V14.01,2013-08-07 02:29:00,
2013-08-06 22:34:00,65.1,63.6,30.07,SE,141,5.0,5.0,95,0.00,,OVC011,0.02,VWS V14.01,2013-08-07 02:34:00,
2013-08-06 22:39:00,65.1,63.6,30.07,SE,140,4.0,6.0,95,0.00,,OVC011,0.02,VWS V14.01,2013-08-07 02:39:00,
2013-08-06 22:44:00,65.1,63.6,30.07,ESE,120,3.0,7.0,95,0.00,,OVC011,0.02,VWS V14.01,2013-08-07 02:44:00,
2013-08-06 22:49:00,65.1,63.6,30.07,SE,137,1.0,5.0,95,0.00,,OVC011,0.02,VWS V14.01,2013-08-07 02:49:00,
2013-08-06 22:54:00,65.1,63.6,30.07,South,170,3.0,7.0,95,0.00,,OVC011,0.02,VWS V14.01,2013-08-07 02:54:00,
2013-08-06 22:59:00,65.1,63.6,30.07,SSE,165,4.0,8.0,95,0.00,,OVC011,0.02,VWS V14.01,2013-08-07 02:59:00,
2013-08-06 23:04:00,65.1,63.6,30.07,South,171,1.0,6.0,95,0.00,,OVC009,0.02,VWS V14.01,2013-08-07 03:04:00,
2013-08-06 23:09:00,65.1,63.6,30.07,SE,141,1.0,7.0,95,0.00,,OVC009,0.02,VWS V14.01,2013-08-07 03:09:00,
2013-08-06 23:14:00,65.0,63.5,30.07,SSE,148,2.0,5.0,95,0.00,,OVC009,0.02,VWS V14.01,2013-08-07 03:14:00,
2013-08-06 23:19:00,65.0,63.5,30.07,SE,139,2.0,8.0,95,0.00,,OVC009,0.02,VWS V14.01,2013-08-07 03:19:00,
2013-08-06 23:24:00,65.0,63.8,30.07,SE,125,3.0,4.0,96,0.00,,OVC009,0.02,VWS V14.01,2013-08-07 03:24:00,
2013-08-06 23:29:00,65.0,63.8,30.07,SE,137,4.0,4.0,96,0.00,,OVC009,0.02,VWS V14.01,2013-08-07 03:29:00,
2013-08-06 23:34:00,64.9,63.7,30.07,SSE,149,2.0,5.0,96,0.00,,OVC009,0.02,VWS V14.01,2013-08-07 03:34:00,
2013-08-06 23:39:00,65.0,63.8,30.07,SE,135,2.0,6.0,96,0.00,,OVC009,0.02,VWS V14.01,2013-08-07 03:39:00,
2013-08-06 23:44:00,65.0,63.8,30.07,ESE,118,3.0,4.0,96,0.00,,OVC009,0.02,VWS V14.01,2013-08-07 03:44:00,
2013-08-06 23:49:00,65.0,63.8,30.07,ESE,105,2.0,4.0,96,0.00,,OVC009,0.02,VWS V14.01,2013-08-07 03:49:00,
2013-08-06 23:54:00,65.0,63.8,30.07,ESE,117,1.0,4.0,96,0.00,,OVC009,0.02,VWS V14.01,2013-08-07 03:54:00,
2013-08-06 23:59:00,64.9,63.7,30.07,ESE,110,3.0,5.0,96,0.00,,OVC009,0.02,VWS V14.01,2013-08-07 03:59:00,